Time;durP1;ratioP1;P1;durP2;ratioP2;P2;SDS_P1;SDS_P2;PMS_P1;PMS_P2;Temp;Humidity;BMP_temperature;BMP_pressure;BME280_temperature;BME280_humidity;BME280_pressure;Samples;Min_cycle;Max_cycle;Signal;HPM_P1;HPM_P2
2023/08/16 00:01:49;;;;;;;9.25;6.97;;;;;;;;;;5057607;28;20567;-70
2023/08/16 00:04:17;;;;;;;8.20;6.63;;;;;;;;;;5075342;28;20036;-70
2023/08/16 00:06:44;;;;;;;11.00;7.18;;;;;;;;;;5057397;28;20059;-70
2023/08/16 00:09:12;;;;;;;11.48;6.97;;;;;;;;;;5075195;28;20070;-70
2023/08/16 00:11:40;;;;;;;7.65;6.35;;;;;;;;;;5075225;28;20036;-70
2023/08/16 00:14:07;;;;;;;9.35;6.80;;;;;;;;;;5075195;28;20372;-70
2023/08/16 00:16:34;;;;;;;7.43;6.35;;;;;;;;;;5075079;28;20064;-70
2023/08/16 00:19:02;;;;;;;7.32;6.20;;;;;;;;;;5074894;28;20041;-70
2023/08/16 00:21:29;;;;;;;7.00;6.00;;;;;;;;;;5075001;28;20102;-70
2023/08/16 00:23:57;;;;;;;7.95;5.90;;;;;;;;;;5074971;28;20105;-71
2023/08/16 00:26:25;;;;;;;9.02;6.13;;;;;;;;;;5075018;28;20060;-70
2023/08/16 00:28:53;;;;;;;8.27;6.78;;;;;;;;;;5074907;28;20052;-70
2023/08/16 00:31:21;;;;;;;8.13;5.95;;;;;;;;;;5056949;28;20048;-70
2023/08/16 00:33:48;;;;;;;7.30;6.18;;;;;;;;;;5056826;28;20040;-70
2023/08/16 00:36:16;;;;;;;10.70;6.38;;;;;;;;;;5074856;28;20054;-71
2023/08/16 00:38:43;;;;;;;8.45;6.40;;;;;;;;;;5073318;28;20044;-70
2023/08/16 00:41:11;;;;;;;8.05;6.07;;;;;;;;;;5074728;28;20037;-70
2023/08/16 00:43:39;;;;;;;11.55;6.53;;;;;;;;;;5056960;28;20036;-70
2023/08/16 00:46:11;;;;;;;9.80;5.78;;;;;;;;;;5056625;28;20060;-71
2023/08/16 00:48:40;;;;;;;9.40;6.13;;;;;;;;;;5073226;28;20112;-70
2023/08/16 00:51:09;;;;;;;7.90;6.40;;;;;;;;;;5056442;28;20049;-71
2023/08/16 00:53:38;;;;;;;8.43;6.10;;;;;;;;;;5056424;28;20041;-71
2023/08/16 00:56:11;;;;;;;9.15;6.20;;;;;;;;;;5056245;28;20526;-71
2023/08/16 00:58:38;;;;;;;12.55;6.45;;;;;;;;;;5074246;28;20095;-71
2023/08/16 01:01:07;;;;;;;9.13;6.45;;;;;;;;;;5074094;28;20056;-71
2023/08/16 01:03:34;;;;;;;9.02;6.15;;;;;;;;;;5072824;28;20069;-71
2023/08/16 01:06:03;;;;;;;8.93;6.05;;;;;;;;;;5055301;28;20052;-70
2023/08/16 01:08:31;;;;;;;7.88;6.45;;;;;;;;;;5056184;28;20131;-70
2023/08/16 01:11:03;;;;;;;9.95;6.55;;;;;;;;;;5074337;28;20580;-71
2023/08/16 01:13:34;;;;;;;9.32;6.43;;;;;;;;;;5056085;28;20455;-70
2023/08/16 01:16:07;;;;;;;11.55;6.47;;;;;;;;;;5074030;28;20053;-71
2023/08/16 01:18:40;;;;;;;8.38;6.45;;;;;;;;;;5074070;28;20633;-71
2023/08/16 01:21:09;;;;;;;7.22;5.78;;;;;;;;;;5073824;28;20028;-70
2023/08/16 01:23:37;;;;;;;7.93;6.03;;;;;;;;;;5055871;28;20438;-69
2023/08/16 01:26:11;;;;;;;9.77;6.63;;;;;;;;;;5055905;28;20508;-70
2023/08/16 01:28:40;;;;;;;11.13;6.70;;;;;;;;;;5055718;28;20045;-70
2023/08/16 01:31:07;;;;;;;10.63;6.93;;;;;;;;;;5055778;28;20048;-70
2023/08/16 01:33:35;;;;;;;10.10;6.57;;;;;;;;;;5072392;28;20048;-70
2023/08/16 01:36:02;;;;;;;12.38;7.05;;;;;;;;;;5055800;28;20053;-70
2023/08/16 01:38:30;;;;;;;8.25;6.90;;;;;;;;;;5073523;28;20090;-70
2023/08/16 01:41:21;;;;;;;12.23;6.82;;;;;;;;;;5055620;28;20040;-71
2023/08/16 01:43:49;;;;;;;10.18;6.65;;;;;;;;;;5036641;28;20482;-70
2023/08/16 01:46:18;;;;;;;11.73;6.85;;;;;;;;;;5039131;28;20051;-72
2023/08/16 01:48:46;;;;;;;13.18;6.50;;;;;;;;;;5073360;28;20044;-72
2023/08/16 01:51:13;;;;;;;10.50;6.93;;;;;;;;;;5055367;28;20036;-72
2023/08/16 01:53:42;;;;;;;8.20;7.20;;;;;;;;;;5073225;28;20033;-72
2023/08/16 01:56:10;;;;;;;7.95;7.00;;;;;;;;;;5055269;28;20498;-72
2023/08/16 01:58:37;;;;;;;9.07;7.05;;;;;;;;;;5055228;28;20052;-71
2023/08/16 02:01:04;;;;;;;8.63;6.88;;;;;;;;;;5054935;28;20056;-72
2023/08/16 02:03:33;;;;;;;10.50;6.75;;;;;;;;;;5055183;28;20062;-71
2023/08/16 02:06:00;;;;;;;9.23;6.50;;;;;;;;;;5055117;28;20037;-71
2023/08/16 02:08:28;;;;;;;8.48;7.00;;;;;;;;;;5055086;28;20144;-71
2023/08/16 02:10:56;;;;;;;9.23;7.07;;;;;;;;;;5054987;28;20037;-71
2023/08/16 02:13:24;;;;;;;10.38;6.82;;;;;;;;;;5072915;28;20044;-72
2023/08/16 02:15:58;;;;;;;10.15;7.20;;;;;;;;;;5072663;28;20115;-71
2023/08/16 02:18:27;;;;;;;8.00;7.18;;;;;;;;;;5072796;28;20491;-71
2023/08/16 02:20:56;;;;;;;10.40;7.35;;;;;;;;;;5054829;28;20037;-71
2023/08/16 02:23:23;;;;;;;10.23;7.53;;;;;;;;;;5055175;28;20060;-72
2023/08/16 02:25:51;;;;;;;13.32;7.60;;;;;;;;;;5054917;28;20128;-71
2023/08/16 02:28:19;;;;;;;10.07;7.57;;;;;;;;;;5054707;28;20144;-71
2023/08/16 02:30:47;;;;;;;9.45;7.65;;;;;;;;;;5054576;28;20125;-71
2023/08/16 02:33:14;;;;;;;14.63;7.90;;;;;;;;;;5054826;28;20128;-71
2023/08/16 02:35:42;;;;;;;12.30;7.53;;;;;;;;;;5072621;28;20067;-70
2023/08/16 02:38:10;;;;;;;9.27;7.85;;;;;;;;;;5054610;28;20052;-72
2023/08/16 02:40:38;;;;;;;10.02;7.57;;;;;;;;;;5072596;28;20505;-72
2023/08/16 02:43:06;;;;;;;10.07;7.63;;;;;;;;;;5072601;28;20040;-72
2023/08/16 02:45:35;;;;;;;10.10;7.57;;;;;;;;;;5054603;28;20049;-72
2023/08/16 02:48:03;;;;;;;11.85;7.50;;;;;;;;;;5072462;28;20036;-72
2023/08/16 02:50:30;;;;;;;10.70;7.07;;;;;;;;;;5054797;28;20040;-72
2023/08/16 02:52:57;;;;;;;10.18;7.10;;;;;;;;;;5054339;28;20107;-72
2023/08/16 02:55:25;;;;;;;11.63;7.20;;;;;;;;;;5054489;28;20040;-72
2023/08/16 02:57:52;;;;;;;10.88;7.60;;;;;;;;;;5072472;28;20040;-71
2023/08/16 03:00:20;;;;;;;10.20;7.57;;;;;;;;;;5050910;28;20049;-72
2023/08/16 03:02:47;;;;;;;13.40;7.97;;;;;;;;;;5051541;28;20431;-71
2023/08/16 03:05:15;;;;;;;11.57;7.88;;;;;;;;;;5051015;28;20047;-71
2023/08/16 03:07:44;;;;;;;10.32;8.18;;;;;;;;;;5051030;28;20045;-71
2023/08/16 03:10:12;;;;;;;9.70;7.85;;;;;;;;;;5052184;28;20037;-71
2023/08/16 03:12:39;;;;;;;10.00;8.60;;;;;;;;;;5051014;28;20053;-71
2023/08/16 03:15:07;;;;;;;13.65;8.77;;;;;;;;;;5052191;28;20037;-72
2023/08/16 03:17:34;;;;;;;11.40;8.93;;;;;;;;;;5052308;28;20453;-71
2023/08/16 03:20:06;;;;;;;11.52;8.18;;;;;;;;;;5050896;28;20033;-71
2023/08/16 03:22:34;;;;;;;13.32;8.50;;;;;;;;;;5067562;28;20084;-72
2023/08/16 03:25:01;;;;;;;12.25;8.80;;;;;;;;;;5052115;28;20069;-71
2023/08/16 03:27:29;;;;;;;12.70;8.65;;;;;;;;;;5050978;28;20566;-71
2023/08/16 03:29:56;;;;;;;12.15;8.60;;;;;;;;;;5054760;28;20530;-71
2023/08/16 03:32:24;;;;;;;12.10;8.60;;;;;;;;;;5054748;28;20132;-72
2023/08/16 03:34:52;;;;;;;15.15;8.98;;;;;;;;;;5054406;28;20475;-71
2023/08/16 03:37:19;;;;;;;13.27;7.93;;;;;;;;;;5054822;28;20430;-71
2023/08/16 03:39:47;;;;;;;12.13;8.07;;;;;;;;;;5054658;28;20605;-71
2023/08/16 03:42:14;;;;;;;15.02;8.20;;;;;;;;;;5054117;28;20064;-71
2023/08/16 03:44:42;;;;;;;15.93;8.50;;;;;;;;;;5034266;28;20038;-71
2023/08/16 03:47:11;;;;;;;12.90;7.68;;;;;;;;;;5035753;28;20059;-72
2023/08/16 03:49:38;;;;;;;13.40;7.93;;;;;;;;;;5035727;28;20041;-72
2023/08/16 03:52:06;;;;;;;13.18;8.13;;;;;;;;;;5035603;28;20052;-72
2023/08/16 03:54:34;;;;;;;11.82;8.25;;;;;;;;;;5034985;28;20041;-71
2023/08/16 03:57:02;;;;;;;12.48;8.10;;;;;;;;;;5034351;28;20217;-71
2023/08/16 03:59:29;;;;;;;16.35;9.10;;;;;;;;;;5020581;28;20072;-71
2023/08/16 04:01:57;;;;;;;14.32;8.98;;;;;;;;;;5037427;28;20124;-71
2023/08/16 04:04:24;;;;;;;19.83;8.75;;;;;;;;;;5037627;28;20575;-71
2023/08/16 04:06:52;;;;;;;15.20;8.55;;;;;;;;;;5036689;28;20148;-71
2023/08/16 04:09:19;;;;;;;13.38;8.65;;;;;;;;;;5035601;28;20052;-71
2023/08/16 04:11:47;;;;;;;17.90;9.65;;;;;;;;;;5035525;28;20103;-71
2023/08/16 04:14:14;;;;;;;14.45;8.93;;;;;;;;;;5035406;28;20041;-71
2023/08/16 04:16:42;;;;;;;16.10;10.00;;;;;;;;;;5035468;28;20055;-71
2023/08/16 04:19:09;;;;;;;20.10;9.95;;;;;;;;;;5035344;28;20569;-73
2023/08/16 04:21:38;;;;;;;13.20;8.85;;;;;;;;;;5053861;28;20498;-70
2023/08/16 04:24:06;;;;;;;16.70;8.75;;;;;;;;;;5055040;28;20044;-70
2023/08/16 04:26:34;;;;;;;15.23;8.93;;;;;;;;;;5037161;28;20048;-70
2023/08/16 04:29:04;;;;;;;17.60;8.77;;;;;;;;;;5037074;28;20041;-70
2023/08/16 04:31:32;;;;;;;15.68;8.77;;;;;;;;;;5036865;28;20517;-71
2023/08/16 04:34:01;;;;;;;14.40;8.52;;;;;;;;;;5037057;28;20033;-70
2023/08/16 04:36:28;;;;;;;14.40;8.98;;;;;;;;;;5036749;28;20141;-71
2023/08/16 04:38:56;;;;;;;13.10;9.15;;;;;;;;;;5036687;28;20040;-70
2023/08/16 04:41:24;;;;;;;14.60;8.52;;;;;;;;;;5036872;28;20136;-71
2023/08/16 04:43:52;;;;;;;14.90;9.07;;;;;;;;;;5036743;28;20509;-70
2023/08/16 04:46:19;;;;;;;14.18;8.25;;;;;;;;;;5036732;28;20051;-70
2023/08/16 04:48:47;;;;;;;13.98;8.10;;;;;;;;;;5054550;28;20068;-71
2023/08/16 04:51:14;;;;;;;11.43;7.10;;;;;;;;;;5036551;28;20678;-71
2023/08/16 04:53:42;;;;;;;10.32;6.90;;;;;;;;;;5036657;28;20040;-71
2023/08/16 04:56:09;;;;;;;11.10;6.65;;;;;;;;;;5054531;28;20398;-71
2023/08/16 04:58:39;;;;;;;11.77;7.43;;;;;;;;;;5036361;28;20132;-71
2023/08/16 05:01:07;;;;;;;9.52;7.00;;;;;;;;;;5036326;28;20480;-71
2023/08/16 05:03:35;;;;;;;13.38;7.45;;;;;;;;;;5036961;28;20040;-72
2023/08/16 05:06:03;;;;;;;7.72;6.93;;;;;;;;;;5056175;28;20122;-71
2023/08/16 05:08:31;;;;;;;10.13;7.13;;;;;;;;;;5036513;28;20045;-71
2023/08/16 05:10:59;;;;;;;10.15;6.90;;;;;;;;;;5036252;28;20140;-71
2023/08/16 05:13:27;;;;;;;13.75;7.18;;;;;;;;;;5054076;28;20047;-71
2023/08/16 05:15:54;;;;;;;11.50;7.15;;;;;;;;;;5036223;28;20076;-71
2023/08/16 05:18:22;;;;;;;13.65;8.00;;;;;;;;;;5036170;28;20432;-72
2023/08/16 05:20:52;;;;;;;10.95;7.90;;;;;;;;;;5036311;28;20147;-71
2023/08/16 05:23:20;;;;;;;11.40;7.78;;;;;;;;;;5053960;28;20544;-71
2023/08/16 05:25:49;;;;;;;13.68;7.30;;;;;;;;;;5053877;28;20051;-71
2023/08/16 05:28:16;;;;;;;8.98;7.80;;;;;;;;;;5053973;28;20063;-71
2023/08/16 05:30:44;;;;;;;12.20;7.50;;;;;;;;;;5053649;28;20040;-71
2023/08/16 05:33:11;;;;;;;12.93;8.13;;;;;;;;;;5036368;28;20402;-71
2023/08/16 05:35:39;;;;;;;13.63;7.72;;;;;;;;;;5053721;28;20041;-71
2023/08/16 05:38:06;;;;;;;10.95;8.45;;;;;;;;;;5053950;28;20048;-71
2023/08/16 05:40:33;;;;;;;9.98;8.40;;;;;;;;;;5053656;28;20041;-71
2023/08/16 05:43:01;;;;;;;10.57;8.52;;;;;;;;;;5053542;28;20116;-71
2023/08/16 05:45:30;;;;;;;14.57;7.75;;;;;;;;;;5053429;28;20498;-71
2023/08/16 05:47:57;;;;;;;10.18;7.47;;;;;;;;;;5053483;28;20095;-71
2023/08/16 05:50:25;;;;;;;11.65;7.30;;;;;;;;;;5052722;28;20040;-71
2023/08/16 05:52:52;;;;;;;11.45;6.93;;;;;;;;;;5053385;28;20067;-71
2023/08/16 05:55:20;;;;;;;12.32;7.85;;;;;;;;;;5035687;28;20041;-71
2023/08/16 05:57:47;;;;;;;9.90;7.80;;;;;;;;;;5035419;28;20067;-70
2023/08/16 06:00:15;;;;;;;12.07;7.00;;;;;;;;;;5053022;28;20053;-71
2023/08/16 06:02:43;;;;;;;12.25;7.70;;;;;;;;;;5053135;28;20040;-71
2023/08/16 06:05:10;;;;;;;11.15;7.57;;;;;;;;;;5052905;28;20506;-71
2023/08/16 06:07:38;;;;;;;10.32;6.43;;;;;;;;;;5053011;28;20123;-71
2023/08/16 06:10:06;;;;;;;11.88;6.63;;;;;;;;;;5053000;28;20052;-71
2023/08/16 06:12:34;;;;;;;8.75;6.78;;;;;;;;;;5052869;28;20080;-71
2023/08/16 06:15:02;;;;;;;11.88;6.93;;;;;;;;;;5053073;28;20450;-71
2023/08/16 06:17:29;;;;;;;7.97;5.75;;;;;;;;;;5052863;28;20051;-70
2023/08/16 06:19:57;;;;;;;15.25;6.25;;;;;;;;;;5052902;28;20033;-70
2023/08/16 06:22:24;;;;;;;8.07;6.25;;;;;;;;;;5053016;28;20062;-70
2023/08/16 06:24:53;;;;;;;8.43;5.78;;;;;;;;;;5052828;28;20090;-70
2023/08/16 06:27:20;;;;;;;13.20;6.38;;;;;;;;;;5052665;28;20119;-70
2023/08/16 06:29:48;;;;;;;11.68;5.75;;;;;;;;;;5052573;28;20041;-70
2023/08/16 06:32:16;;;;;;;9.55;6.13;;;;;;;;;;5052786;28;20371;-71
2023/08/16 06:34:44;;;;;;;14.57;6.03;;;;;;;;;;5034933;28;20037;-70
2023/08/16 06:37:11;;;;;;;14.55;5.80;;;;;;;;;;5034910;28;20568;-71
2023/08/16 06:39:39;;;;;;;13.15;5.95;;;;;;;;;;5034687;28;20398;-71
2023/08/16 06:42:07;;;;;;;15.15;5.72;;;;;;;;;;5052669;28;20099;-71
2023/08/16 06:44:35;;;;;;;9.13;5.82;;;;;;;;;;5034634;28;20457;-70
2023/08/16 06:47:03;;;;;;;10.93;5.85;;;;;;;;;;5052289;28;20048;-70
2023/08/16 06:49:30;;;;;;;8.60;4.80;;;;;;;;;;5052290;28;20040;-71
2023/08/16 06:51:58;;;;;;;13.40;5.60;;;;;;;;;;5052381;28;20045;-72
2023/08/16 06:54:26;;;;;;;9.65;4.95;;;;;;;;;;5052772;28;20044;-72
2023/08/16 06:56:57;;;;;;;7.38;4.90;;;;;;;;;;5052505;28;20544;-72
2023/08/16 06:59:25;;;;;;;6.43;4.80;;;;;;;;;;5052177;28;20068;-70
2023/08/16 07:01:53;;;;;;;9.38;4.68;;;;;;;;;;5053205;28;20103;-71
2023/08/16 07:04:20;;;;;;;7.13;4.50;;;;;;;;;;5056532;28;20037;-69
2023/08/16 07:06:48;;;;;;;7.75;4.55;;;;;;;;;;5038532;28;20102;-72
2023/08/16 07:09:16;;;;;;;7.28;3.90;;;;;;;;;;5056600;28;20037;-71
2023/08/16 07:11:43;;;;;;;5.70;4.70;;;;;;;;;;5038729;28;20131;-71
2023/08/16 07:14:11;;;;;;;8.45;4.38;;;;;;;;;;5056423;28;20045;-72
2023/08/16 07:16:39;;;;;;;6.93;4.07;;;;;;;;;;5056386;28;20040;-72
2023/08/16 07:19:10;;;;;;;7.45;4.15;;;;;;;;;;5056300;28;20044;-72
2023/08/16 07:21:39;;;;;;;11.70;4.53;;;;;;;;;;5056286;28;20127;-71
2023/08/16 07:24:06;;;;;;;12.30;4.65;;;;;;;;;;5056265;28;20079;-71
2023/08/16 07:26:34;;;;;;;8.32;4.63;;;;;;;;;;5038178;28;20060;-71
2023/08/16 07:29:01;;;;;;;7.50;4.35;;;;;;;;;;5038306;28;20048;-71
2023/08/16 07:31:29;;;;;;;10.10;4.35;;;;;;;;;;5055931;28;20041;-71
2023/08/16 07:33:56;;;;;;;7.72;4.90;;;;;;;;;;5038294;28;20517;-70
2023/08/16 07:36:24;;;;;;;5.80;4.60;;;;;;;;;;5056048;28;20059;-71
2023/08/16 07:38:51;;;;;;;7.75;3.92;;;;;;;;;;5056000;28;20036;-71
2023/08/16 07:41:19;;;;;;;8.82;4.32;;;;;;;;;;5055935;28;20368;-71
2023/08/16 07:43:46;;;;;;;6.43;4.32;;;;;;;;;;5055771;28;20045;-71
2023/08/16 07:46:14;;;;;;;8.02;3.92;;;;;;;;;;5055886;28;20041;-71
2023/08/16 07:48:41;;;;;;;8.25;4.47;;;;;;;;;;5055689;28;20509;-71
2023/08/16 07:51:09;;;;;;;9.55;4.35;;;;;;;;;;5055615;28;20033;-72
2023/08/16 07:53:36;;;;;;;8.82;3.90;;;;;;;;;;5055615;28;20521;-71
2023/08/16 07:56:04;;;;;;;7.00;4.55;;;;;;;;;;5055719;28;20533;-71
2023/08/16 07:58:32;;;;;;;9.05;4.07;;;;;;;;;;5055597;28;20051;-71
2023/08/16 08:01:00;;;;;;;7.25;4.40;;;;;;;;;;5055366;28;20447;-71
2023/08/16 08:03:27;;;;;;;5.57;4.22;;;;;;;;;;5055516;28;20090;-72
2023/08/16 08:06:00;;;;;;;7.72;3.60;;;;;;;;;;5055474;28;20041;-72
2023/08/16 08:08:28;;;;;;;7.63;4.28;;;;;;;;;;5055720;28;20372;-71
2023/08/16 08:10:55;;;;;;;6.30;4.20;;;;;;;;;;5055217;28;20039;-72
2023/08/16 08:13:23;;;;;;;6.82;4.50;;;;;;;;;;5037244;28;20059;-72
2023/08/16 08:15:50;;;;;;;9.98;4.10;;;;;;;;;;5055504;28;20037;-71
2023/08/16 08:18:18;;;;;;;7.00;4.05;;;;;;;;;;5055225;28;20045;-72
2023/08/16 08:20:46;;;;;;;6.03;3.80;;;;;;;;;;5055219;28;20095;-72
2023/08/16 08:23:13;;;;;;;6.70;4.00;;;;;;;;;;5055145;28;20049;-72
2023/08/16 08:25:42;;;;;;;8.27;4.43;;;;;;;;;;5055145;28;20033;-71
2023/08/16 08:28:10;;;;;;;7.95;3.92;;;;;;;;;;5037049;28;20059;-71
2023/08/16 08:30:37;;;;;;;6.25;4.03;;;;;;;;;;5055072;28;20391;-72
2023/08/16 08:33:05;;;;;;;8.18;3.83;;;;;;;;;;5054845;28;20495;-72
2023/08/16 08:35:33;;;;;;;6.80;3.90;;;;;;;;;;5054823;28;20060;-71
2023/08/16 08:38:01;;;;;;;9.52;4.45;;;;;;;;;;5054900;28;20045;-71
2023/08/16 08:40:32;;;;;;;10.05;4.32;;;;;;;;;;5036894;28;20052;-72
2023/08/16 08:43:00;;;;;;;8.48;4.53;;;;;;;;;;5054818;28;20068;-71
2023/08/16 08:45:27;;;;;;;5.53;4.30;;;;;;;;;;5054650;28;20394;-71
2023/08/16 08:47:57;;;;;;;6.93;4.10;;;;;;;;;;5054689;28;20112;-72
2023/08/16 08:50:25;;;;;;;9.40;3.90;;;;;;;;;;5054713;28;20057;-72
2023/08/16 08:52:53;;;;;;;7.20;4.15;;;;;;;;;;5054519;28;20040;-71
2023/08/16 08:55:21;;;;;;;12.07;4.57;;;;;;;;;;5054504;28;20076;-71
2023/08/16 08:57:50;;;;;;;6.75;3.83;;;;;;;;;;5054365;28;20447;-71
2023/08/16 09:00:19;;;;;;;8.43;4.40;;;;;;;;;;5054513;28;20053;-71
2023/08/16 09:02:52;;;;;;;7.28;4.32;;;;;;;;;;5054343;28;20048;-71
2023/08/16 09:05:22;;;;;;;6.00;4.57;;;;;;;;;;5054397;28;20457;-71
2023/08/16 09:07:51;;;;;;;13.20;5.00;;;;;;;;;;5054382;28;20112;-72
2023/08/16 09:10:19;;;;;;;7.70;4.07;;;;;;;;;;5054268;28;20048;-71
2023/08/16 09:12:46;;;;;;;7.72;4.55;;;;;;;;;;5054095;28;20055;-71
2023/08/16 09:15:14;;;;;;;6.55;4.03;;;;;;;;;;5054101;28;20040;-71
2023/08/16 09:17:42;;;;;;;6.63;4.00;;;;;;;;;;5054251;28;20431;-72
2023/08/16 09:20:09;;;;;;;8.95;4.55;;;;;;;;;;5053923;28;20114;-71
2023/08/16 09:22:37;;;;;;;10.80;4.78;;;;;;;;;;5053934;28;20041;-71
2023/08/16 09:25:10;;;;;;;7.60;4.45;;;;;;;;;;5053420;28;20491;-71
2023/08/16 09:27:40;;;;;;;8.13;4.78;;;;;;;;;;5053491;28;20396;-72
2023/08/16 09:30:12;;;;;;;10.30;5.45;;;;;;;;;;5053907;28;20045;-72
2023/08/16 09:32:40;;;;;;;7.68;5.30;;;;;;;;;;5053734;28;20072;-72
2023/08/16 09:35:12;;;;;;;6.70;4.13;;;;;;;;;;5053729;28;20043;-72
2023/08/16 09:37:40;;;;;;;7.85;4.32;;;;;;;;;;5053446;28;20044;-72
2023/08/16 09:40:11;;;;;;;9.52;4.45;;;;;;;;;;5053872;28;20045;-72
2023/08/16 09:42:38;;;;;;;8.88;4.78;;;;;;;;;;5053357;28;20087;-72
2023/08/16 09:45:06;;;;;;;8.40;4.75;;;;;;;;;;5053799;28;20041;-72
2023/08/16 09:47:41;;;;;;;8.35;4.68;;;;;;;;;;5053697;28;20215;-71
2023/08/16 09:50:29;;;;;;;7.85;4.95;;;;;;;;;;5053399;28;20048;-71
2023/08/16 09:52:58;;;;;;;9.75;5.65;;;;;;;;;;5053402;28;20055;-73
2023/08/16 09:55:30;;;;;;;9.38;5.65;;;;;;;;;;5053324;28;20052;-73
2023/08/16 09:57:58;;;;;;;8.10;4.95;;;;;;;;;;5053973;28;20386;-73
2023/08/16 10:00:27;;;;;;;11.55;5.70;;;;;;;;;;5055541;28;20041;-74
2023/08/16 10:02:55;;;;;;;11.07;6.68;;;;;;;;;;5054661;28;20619;-73
2023/08/16 10:05:24;;;;;;;6.20;4.72;;;;;;;;;;5053046;28;20514;-73
2023/08/16 10:07:59;;;;;;;5.70;4.30;;;;;;;;;;5035764;28;20103;-72
2023/08/16 10:10:27;;;;;;;7.43;4.55;;;;;;;;;;5036163;28;20102;-72
2023/08/16 10:12:54;;;;;;;13.50;6.07;;;;;;;;;;5052933;28;20094;-72
2023/08/16 10:15:26;;;;;;;6.85;4.68;;;;;;;;;;5052999;28;20033;-73
2023/08/16 10:17:54;;;;;;;7.80;4.53;;;;;;;;;;5052938;28;20046;-72
2023/08/16 10:20:25;;;;;;;6.40;4.88;;;;;;;;;;5052908;28;20037;-72
2023/08/16 10:23:02;;;;;;;9.85;5.47;;;;;;;;;;5053092;28;20037;-71
2023/08/16 10:25:38;;;;;;;10.10;4.75;;;;;;;;;;5035125;28;20128;-73
2023/08/16 10:28:07;;;;;;;6.95;4.75;;;;;;;;;;5034805;28;20057;-72
2023/08/16 10:30:36;;;;;;;8.25;4.57;;;;;;;;;;5052817;28;20045;-73
2023/08/16 10:33:09;;;;;;;7.63;5.00;;;;;;;;;;5052642;28;20072;-71
2023/08/16 10:35:38;;;;;;;10.43;4.85;;;;;;;;;;5034842;28;20487;-72
2023/08/16 10:38:05;;;;;;;11.35;5.15;;;;;;;;;;5052420;28;20495;-71
2023/08/16 10:40:33;;;;;;;9.70;5.00;;;;;;;;;;5052698;28;20033;-72
2023/08/16 10:43:04;;;;;;;7.60;4.38;;;;;;;;;;5052794;28;20110;-72
2023/08/16 10:45:36;;;;;;;9.02;4.80;;;;;;;;;;5034865;28;20057;-72
2023/08/16 10:48:11;;;;;;;8.82;4.47;;;;;;;;;;5052175;28;20045;-71
2023/08/16 10:50:39;;;;;;;9.75;4.25;;;;;;;;;;5052769;28;20052;-71
2023/08/16 10:53:07;;;;;;;8.80;4.97;;;;;;;;;;5052458;28;20045;-72
2023/08/16 10:55:35;;;;;;;7.57;4.72;;;;;;;;;;5034549;28;20059;-72
2023/08/16 10:58:02;;;;;;;8.35;4.22;;;;;;;;;;5052451;28;20040;-72
2023/08/16 11:00:33;;;;;;;10.20;4.55;;;;;;;;;;5052368;28;20052;-72
2023/08/16 11:03:03;;;;;;;12.23;4.80;;;;;;;;;;5052550;28;20107;-72
2023/08/16 11:05:31;;;;;;;10.25;4.72;;;;;;;;;;5052314;28;20044;-72
2023/08/16 11:08:01;;;;;;;7.85;4.63;;;;;;;;;;5052257;28;20041;-73
2023/08/16 11:10:38;;;;;;;7.18;4.43;;;;;;;;;;5052507;28;20091;-72
2023/08/16 11:13:10;;;;;;;8.32;4.60;;;;;;;;;;5034410;28;20063;-73
2023/08/16 11:15:38;;;;;;;8.75;4.25;;;;;;;;;;5052264;28;20517;-72
2023/08/16 11:18:05;;;;;;;8.65;4.07;;;;;;;;;;5052093;28;20252;-73
2023/08/16 11:20:36;;;;;;;6.68;4.18;;;;;;;;;;5052032;28;20261;-72
2023/08/16 11:23:04;;;;;;;6.18;4.03;;;;;;;;;;5052087;28;20131;-72
2023/08/16 11:25:35;;;;;;;6.75;4.00;;;;;;;;;;5052406;28;20041;-72
2023/08/16 11:28:03;;;;;;;7.50;4.18;;;;;;;;;;5052265;28;20073;-72
2023/08/16 11:30:31;;;;;;;6.53;4.10;;;;;;;;;;5052081;28;20041;-72
2023/08/16 11:33:00;;;;;;;9.27;4.55;;;;;;;;;;5052026;28;20628;-72
2023/08/16 11:35:28;;;;;;;4.25;3.65;;;;;;;;;;5052353;28;20064;-72
2023/08/16 11:37:56;;;;;;;6.68;4.15;;;;;;;;;;5052083;28;20037;-73
2023/08/16 11:40:24;;;;;;;8.05;4.15;;;;;;;;;;5052036;28;20056;-72
2023/08/16 11:42:52;;;;;;;8.35;4.25;;;;;;;;;;5051941;28;20033;-72
2023/08/16 11:45:24;;;;;;;5.82;4.00;;;;;;;;;;5051993;28;20400;-74
2023/08/16 11:47:52;;;;;;;9.25;4.45;;;;;;;;;;5051938;28;20069;-72
2023/08/16 11:50:20;;;;;;;7.72;4.10;;;;;;;;;;5055026;28;20063;-71
2023/08/16 11:52:57;;;;;;;6.68;4.50;;;;;;;;;;5055724;28;20115;-72
2023/08/16 11:55:29;;;;;;;7.07;4.43;;;;;;;;;;5055632;28;20033;-72
2023/08/16 11:58:10;;;;;;;7.13;4.00;;;;;;;;;;5055490;28;20051;-72
2023/08/16 12:00:38;;;;;;;10.40;4.78;;;;;;;;;;5055396;28;20128;-72
2023/08/16 12:03:11;;;;;;;6.70;4.30;;;;;;;;;;5055494;28;20044;-75
2023/08/16 12:05:40;;;;;;;5.00;4.20;;;;;;;;;;5055486;28;20033;-72
2023/08/16 12:08:08;;;;;;;7.28;4.43;;;;;;;;;;5055394;28;20135;-72
2023/08/16 12:10:36;;;;;;;8.52;4.50;;;;;;;;;;5055295;28;20091;-73
2023/08/16 12:13:13;;;;;;;6.93;4.40;;;;;;;;;;5055213;28;20053;-72
2023/08/16 12:15:41;;;;;;;8.52;4.50;;;;;;;;;;5055257;28;20071;-72
2023/08/16 12:18:09;;;;;;;8.43;4.07;;;;;;;;;;5055226;28;20041;-72
2023/08/16 12:20:37;;;;;;;9.40;4.32;;;;;;;;;;5037267;28;20380;-71
2023/08/16 12:23:04;;;;;;;8.30;4.32;;;;;;;;;;5055078;28;20064;-73
2023/08/16 12:25:32;;;;;;;7.57;4.28;;;;;;;;;;5055149;28;20127;-71
2023/08/16 12:27:59;;;;;;;10.30;4.57;;;;;;;;;;5037045;28;20132;-72
2023/08/16 12:30:28;;;;;;;7.65;4.25;;;;;;;;;;5055085;28;20055;-70
2023/08/16 12:32:57;;;;;;;5.45;4.32;;;;;;;;;;5055032;28;20124;-71
2023/08/16 12:35:25;;;;;;;7.97;4.35;;;;;;;;;;5036967;28;20049;-72
2023/08/16 12:37:53;;;;;;;8.32;4.30;;;;;;;;;;5054802;28;20099;-72
2023/08/16 12:40:28;;;;;;;10.23;4.43;;;;;;;;;;5054831;28;20041;-73
2023/08/16 12:43:00;;;;;;;7.72;4.35;;;;;;;;;;5055086;28;20065;-72
2023/08/16 12:45:31;;;;;;;8.00;4.53;;;;;;;;;;5036996;28;20053;-73
2023/08/16 12:47:59;;;;;;;6.63;4.47;;;;;;;;;;5054755;28;20118;-72
2023/08/16 12:50:26;;;;;;;9.07;4.28;;;;;;;;;;5054707;28;20510;-73
2023/08/16 12:52:54;;;;;;;7.45;4.45;;;;;;;;;;5054518;28;20041;-73
2023/08/16 12:55:21;;;;;;;7.53;4.60;;;;;;;;;;5054704;28;20043;-73
2023/08/16 12:57:49;;;;;;;6.20;4.50;;;;;;;;;;5036604;28;20049;-73
2023/08/16 13:00:29;;;;;;;9.52;4.70;;;;;;;;;;5054170;28;20053;-72
2023/08/16 13:03:04;;;;;;;9.43;4.27;;;;;;;;;;5054495;28;20495;-74
2023/08/16 13:05:41;;;;;;;10.38;4.60;;;;;;;;;;5054307;28;20497;-73
2023/08/16 13:08:21;;;;;;;7.55;4.05;;;;;;;;;;5054321;28;20045;-72
2023/08/16 13:10:51;;;;;;;8.95;4.80;;;;;;;;;;5054117;28;20390;-73
2023/08/16 13:13:24;;;;;;;7.45;4.45;;;;;;;;;;5053964;28;20041;-72
2023/08/16 13:15:54;;;;;;;6.05;4.45;;;;;;;;;;5054137;28;20065;-72
2023/08/16 13:18:36;;;;;;;11.93;4.72;;;;;;;;;;5054093;28;20063;-72
2023/08/16 13:21:08;;;;;;;6.15;4.30;;;;;;;;;;5054074;28;20041;-73
2023/08/16 13:23:39;;;;;;;9.40;4.40;;;;;;;;;;5054091;28;20045;-72
2023/08/16 13:26:21;;;;;;;6.20;4.03;;;;;;;;;;5053426;28;20041;-72
2023/08/16 13:29:04;;;;;;;7.68;4.43;;;;;;;;;;5055578;28;20049;-73
2023/08/16 13:31:34;;;;;;;8.40;4.45;;;;;;;;;;5073481;28;20040;-73
2023/08/16 13:34:22;;;;;;;7.82;4.50;;;;;;;;;;5055660;28;20048;-73
2023/08/16 13:36:53;;;;;;;11.93;5.07;;;;;;;;;;5050078;28;20095;-76
2023/08/16 13:39:26;;;;;;;7.60;4.95;;;;;;;;;;5057707;28;20046;-73
2023/08/16 13:41:57;;;;;;;8.70;4.10;;;;;;;;;;5050552;28;20494;-73
2023/08/16 13:44:28;;;;;;;7.18;4.10;;;;;;;;;;5039764;28;20486;-74
2023/08/16 13:46:59;;;;;;;7.82;3.90;;;;;;;;;;5064071;28;20052;-74
2023/08/16 13:49:27;;;;;;;7.43;4.18;;;;;;;;;;5067145;28;20119;-74
2023/08/16 13:51:54;;;;;;;7.38;4.15;;;;;;;;;;5070586;28;20050;-73
2023/08/16 13:54:21;;;;;;;5.57;3.58;;;;;;;;;;5072004;28;20044;-74
2023/08/16 13:56:49;;;;;;;6.28;3.60;;;;;;;;;;5072489;28;20032;-73
2023/08/16 13:59:17;;;;;;;10.93;3.95;;;;;;;;;;5072914;28;20048;-75
2023/08/16 14:01:44;;;;;;;6.18;4.05;;;;;;;;;;5073077;28;20032;-74
2023/08/16 14:04:12;;;;;;;5.60;4.00;;;;;;;;;;5072914;28;20145;-74
2023/08/16 14:06:41;;;;;;;9.65;3.63;;;;;;;;;;5071321;28;20033;-73
2023/08/16 14:09:08;;;;;;;7.95;3.90;;;;;;;;;;5046722;28;20043;-70
2023/08/16 14:11:36;;;;;;;5.72;3.28;;;;;;;;;;5050092;28;20037;-70
2023/08/16 14:14:03;;;;;;;12.05;4.00;;;;;;;;;;5059854;28;20442;-69
2023/08/16 14:16:31;;;;;;;9.95;3.60;;;;;;;;;;5054832;28;20044;-68
2023/08/16 14:18:58;;;;;;;5.55;3.33;;;;;;;;;;5065262;28;20063;-68
2023/08/16 14:21:26;;;;;;;8.23;3.40;;;;;;;;;;5066790;28;20032;-71
2023/08/16 14:23:53;;;;;;;5.97;3.40;;;;;;;;;;5046730;28;20083;-69
2023/08/16 14:26:22;;;;;;;4.57;2.97;;;;;;;;;;5056274;28;20047;-70
2023/08/16 14:28:50;;;;;;;6.40;3.22;;;;;;;;;;5066831;28;20048;-68
2023/08/16 14:31:17;;;;;;;7.60;3.75;;;;;;;;;;5066224;28;20048;-69
2023/08/16 14:33:45;;;;;;;4.10;3.33;;;;;;;;;;5066931;28;20040;-69
2023/08/16 14:36:12;;;;;;;5.25;4.72;;;;;;;;;;5067285;28;20036;-68
2023/08/16 14:38:40;;;;;;;10.43;3.55;;;;;;;;;;5067032;28;20036;-68
2023/08/16 14:41:20;;;;;;;5.85;3.75;;;;;;;;;;5061408;28;20037;-68
2023/08/16 14:43:48;;;;;;;6.57;3.60;;;;;;;;;;5058341;28;20066;-67
2023/08/16 14:46:18;;;;;;;9.48;3.33;;;;;;;;;;5066877;28;20032;-68
2023/08/16 14:48:46;;;;;;;4.63;3.28;;;;;;;;;;5067141;28;20041;-69